Terminal Aerodrome Forecast
Issued by NWS Sterling, VA

Current Version | Previous Version | Graphics & Text | Print | Product List | Glossary On
Versions: 1 2 3 4 5 6 7 8 9 10 11 12 13 14 15 16 17 18 19 20 21 22 23
000
FTUS41 KLWX 240856 AAA
TAFDCA
TAF AMD
KDCA 240856Z 2409/2512 11007KT P6SM SCT050 OVC090
     FM241200 09008KT P6SM VCSH SCT025 OVC050
     FM241600 09008G16KT 5SM -RA BKN025 OVC050
     FM242000 09012G20KT 3SM RA SCT008 BKN015 OVC050
     FM250300 07008KT 3SM -RA BR BKN008 OVC015
     FM250900 VRB04KT 3SM -RA BR BKN008 OVC015=

USA.gov is the U.S. government's official web portal to all federal, state and local government web resources and services.